This is the latest recevied weather packets stored in our database for station/object KF5WCW-1. If no packets are shown the sender has not sent any weather packets the latest 10 day(s).
| Time | Temp. | Humidity | Pressure | Rain* | Wind** | Luminosity | Snow |
|---|---|---|---|---|---|---|---|
| 1777922171 | 15.56° C | 33% | 0 hPa | 0 mm | - | - | - |
| 1777921871 | 14.44° C | 36% | 0 hPa | 0 mm | - | - | - |
| 1777921571 | 13.89° C | 38% | 0 hPa | 0 mm | - | - | - |
| 1777921271 | 13.89° C | 40% | 0 hPa | 0 mm | - | - | - |
| 1777920971 | 13.89° C | 43% | 0 hPa | 0 mm | - | - | - |
| 1777920671 | 13.33° C | 45% | 0 hPa | 0 mm | - | - | - |
| 1777920371 | 12.22° C | 49% | 0 hPa | 0 mm | - | - | - |
| 1777920071 | 11.11° C | 60% | 0 hPa | 0 mm | - | - | - |
| 1777919771 | 10° C | 63% | 0 hPa | 0 mm | - | - | - |
| 1777919471 | 10° C | 63% | 0 hPa | 0 mm | - | - | - |
| 1777919171 | 10° C | 60% | 0 hPa | 0 mm | - | - | - |
| 1777918871 | 10.56° C | 56% | 0 hPa | 0 mm | - | - | - |
| 1777918571 | 11.11° C | 51% | 0 hPa | 0 mm | - | - | - |
| 1777918271 | 12.22° C | 45% | 0 hPa | 0 mm | - | - | - |
| 1777917971 | 13.89° C | 37% | 0 hPa | 0 mm | - | - | - |
| 1777917671 | 14.44° C | 35% | 0 hPa | 0 mm | - | - | - |
| 1777917371 | 14.44° C | 35% | 0 hPa | 0 mm | - | - | - |
| 1777917071 | 14.44° C | 34% | 0 hPa | 0 mm | - | - | - |
| 1777916771 | 14.44° C | 36% | 0 hPa | 0 mm | - | - | - |
| 1777916471 | 13.89° C | 36% | 0 hPa | 0 mm | - | - | - |
| 1777916172 | 13.89° C | 35% | 0 hPa | 0 mm | - | - | - |
| 1777915871 | 13.89° C | 36% | 0 hPa | 0 mm | - | - | - |
| 1777915571 | 13.89° C | 36% | 0 hPa | 0 mm | - | - | - |
| 1777915271 | 13.89° C | 36% | 0 hPa | 0 mm | - | - | - |
| 1777914972 | 13.89° C | 37% | 0 hPa | 0 mm | - | - | - |
* Rain latest hour (hover to see other rain measurements)
** Current wind speed in m/s (hover to see current wind gust speed)